sensor_id;sensor_type;location;lat;lon;timestamp;P1;durP1;ratioP1;P2;durP2;ratioP2
49396;SDS011;35615;41.410;2.194;2022-08-06T00:02:39;13.65;;;4.07;;
49396;SDS011;35615;41.410;2.194;2022-08-06T00:05:09;5.57;;;3.90;;
49396;SDS011;35615;41.410;2.194;2022-08-06T00:07:49;8.45;;;4.70;;
49396;SDS011;35615;41.410;2.194;2022-08-06T00:10:19;12.43;;;4.75;;
49396;SDS011;35615;41.410;2.194;2022-08-06T00:12:56;9.93;;;4.00;;
49396;SDS011;35615;41.410;2.194;2022-08-06T00:15:27;13.40;;;4.28;;
49396;SDS011;35615;41.410;2.194;2022-08-06T00:18:15;10.52;;;4.53;;
49396;SDS011;35615;41.410;2.194;2022-08-06T00:20:43;8.80;;;3.67;;
49396;SDS011;35615;41.410;2.194;2022-08-06T00:23:15;9.05;;;4.32;;
49396;SDS011;35615;41.410;2.194;2022-08-06T00:25:43;10.68;;;5.03;;
49396;SDS011;35615;41.410;2.194;2022-08-06T00:28:17;12.40;;;4.43;;
49396;SDS011;35615;41.410;2.194;2022-08-06T00:30:46;11.75;;;4.30;;
49396;SDS011;35615;41.410;2.194;2022-08-06T00:33:14;9.48;;;4.00;;
49396;SDS011;35615;41.410;2.194;2022-08-06T00:35:42;8.20;;;4.07;;
49396;SDS011;35615;41.410;2.194;2022-08-06T00:38:11;8.27;;;3.85;;
49396;SDS011;35615;41.410;2.194;2022-08-06T00:40:40;18.40;;;4.95;;
49396;SDS011;35615;41.410;2.194;2022-08-06T00:45:51;12.60;;;4.70;;
49396;SDS011;35615;41.410;2.194;2022-08-06T00:48:21;16.42;;;4.70;;
49396;SDS011;35615;41.410;2.194;2022-08-06T00:51:08;8.27;;;4.15;;
49396;SDS011;35615;41.410;2.194;2022-08-06T00:53:44;7.28;;;4.28;;
49396;SDS011;35615;41.410;2.194;2022-08-06T00:56:13;13.75;;;4.13;;
49396;SDS011;35615;41.410;2.194;2022-08-06T00:58:41;7.82;;;4.15;;
49396;SDS011;35615;41.410;2.194;2022-08-06T01:01:09;7.90;;;4.18;;
49396;SDS011;35615;41.410;2.194;2022-08-06T01:03:43;7.15;;;3.53;;
49396;SDS011;35615;41.410;2.194;2022-08-06T01:06:18;7.68;;;3.88;;
49396;SDS011;35615;41.410;2.194;2022-08-06T01:09:06;11.85;;;3.67;;
49396;SDS011;35615;41.410;2.194;2022-08-06T01:11:36;8.48;;;4.07;;
49396;SDS011;35615;41.410;2.194;2022-08-06T01:14:05;10.10;;;3.60;;
49396;SDS011;35615;41.410;2.194;2022-08-06T01:16:45;6.78;;;3.65;;
49396;SDS011;35615;41.410;2.194;2022-08-06T01:22:16;5.55;;;3.63;;
49396;SDS011;35615;41.410;2.194;2022-08-06T01:27:36;5.15;;;3.22;;
49396;SDS011;35615;41.410;2.194;2022-08-06T01:30:09;13.25;;;3.88;;
49396;SDS011;35615;41.410;2.194;2022-08-06T01:36:06;4.70;;;3.00;;
49396;SDS011;35615;41.410;2.194;2022-08-06T01:38:44;4.97;;;3.03;;
49396;SDS011;35615;41.410;2.194;2022-08-06T01:41:25;6.17;;;3.27;;
49396;SDS011;35615;41.410;2.194;2022-08-06T01:44:27;10.10;;;3.55;;
49396;SDS011;35615;41.410;2.194;2022-08-06T01:47:00;8.13;;;3.65;;
49396;SDS011;35615;41.410;2.194;2022-08-06T01:49:41;11.95;;;3.88;;
49396;SDS011;35615;41.410;2.194;2022-08-06T01:52:29;8.00;;;3.35;;
49396;SDS011;35615;41.410;2.194;2022-08-06T01:55:03;6.85;;;3.53;;
49396;SDS011;35615;41.410;2.194;2022-08-06T01:57:38;9.85;;;4.18;;
49396;SDS011;35615;41.410;2.194;2022-08-06T02:00:28;14.38;;;3.20;;
49396;SDS011;35615;41.410;2.194;2022-08-06T02:02:58;9.88;;;3.60;;
49396;SDS011;35615;41.410;2.194;2022-08-06T02:05:29;8.23;;;3.67;;
49396;SDS011;35615;41.410;2.194;2022-08-06T02:08:18;8.88;;;3.35;;
49396;SDS011;35615;41.410;2.194;2022-08-06T02:11:07;7.10;;;3.00;;
49396;SDS011;35615;41.410;2.194;2022-08-06T02:13:56;11.18;;;3.78;;
49396;SDS011;35615;41.410;2.194;2022-08-06T02:16:30;6.07;;;3.15;;
49396;SDS011;35615;41.410;2.194;2022-08-06T02:19:08;7.93;;;3.60;;
49396;SDS011;35615;41.410;2.194;2022-08-06T02:21:42;5.85;;;3.20;;
49396;SDS011;35615;41.410;2.194;2022-08-06T02:24:22;4.68;;;3.17;;
49396;SDS011;35615;41.410;2.194;2022-08-06T02:26:56;7.55;;;3.55;;
49396;SDS011;35615;41.410;2.194;2022-08-06T02:29:28;7.93;;;3.05;;
49396;SDS011;35615;41.410;2.194;2022-08-06T02:32:17;6.03;;;3.67;;
49396;SDS011;35615;41.410;2.194;2022-08-06T02:34:48;8.15;;;3.30;;
49396;SDS011;35615;41.410;2.194;2022-08-06T02:37:17;4.60;;;2.75;;
49396;SDS011;35615;41.410;2.194;2022-08-06T02:40:09;7.30;;;3.08;;
49396;SDS011;35615;41.410;2.194;2022-08-06T02:42:53;6.20;;;3.10;;
49396;SDS011;35615;41.410;2.194;2022-08-06T02:45:34;12.03;;;3.67;;
49396;SDS011;35615;41.410;2.194;2022-08-06T02:48:28;7.38;;;3.75;;
49396;SDS011;35615;41.410;2.194;2022-08-06T02:51:01;9.48;;;3.38;;
49396;SDS011;35615;41.410;2.194;2022-08-06T02:53:59;7.88;;;3.35;;
49396;SDS011;35615;41.410;2.194;2022-08-06T02:56:33;7.95;;;2.97;;
49396;SDS011;35615;41.410;2.194;2022-08-06T02:59:12;9.05;;;4.25;;
49396;SDS011;35615;41.410;2.194;2022-08-06T03:02:30;9.05;;;3.33;;
49396;SDS011;35615;41.410;2.194;2022-08-06T03:04:59;10.98;;;3.90;;
49396;SDS011;35615;41.410;2.194;2022-08-06T03:07:30;8.00;;;3.88;;
49396;SDS011;35615;41.410;2.194;2022-08-06T03:10:00;6.70;;;3.50;;
49396;SDS011;35615;41.410;2.194;2022-08-06T03:12:38;7.45;;;3.53;;
49396;SDS011;35615;41.410;2.194;2022-08-06T03:15:09;10.45;;;3.60;;
49396;SDS011;35615;41.410;2.194;2022-08-06T03:17:57;7.47;;;3.67;;
49396;SDS011;35615;41.410;2.194;2022-08-06T03:20:30;12.23;;;4.72;;
49396;SDS011;35615;41.410;2.194;2022-08-06T03:23:00;6.50;;;4.22;;
49396;SDS011;35615;41.410;2.194;2022-08-06T03:25:30;6.20;;;4.05;;
49396;SDS011;35615;41.410;2.194;2022-08-06T03:28:07;6.53;;;3.90;;
49396;SDS011;35615;41.410;2.194;2022-08-06T03:30:47;7.43;;;4.30;;
49396;SDS011;35615;41.410;2.194;2022-08-06T03:33:23;8.25;;;4.28;;
49396;SDS011;35615;41.410;2.194;2022-08-06T03:36:12;7.22;;;3.72;;
49396;SDS011;35615;41.410;2.194;2022-08-06T03:38:45;8.80;;;4.35;;
49396;SDS011;35615;41.410;2.194;2022-08-06T03:41:22;9.07;;;4.15;;
49396;SDS011;35615;41.410;2.194;2022-08-06T03:44:00;7.40;;;3.80;;
49396;SDS011;35615;41.410;2.194;2022-08-06T03:46:44;6.97;;;3.58;;
49396;SDS011;35615;41.410;2.194;2022-08-06T03:49:19;6.93;;;4.10;;
49396;SDS011;35615;41.410;2.194;2022-08-06T03:52:06;11.57;;;4.00;;
49396;SDS011;35615;41.410;2.194;2022-08-06T03:54:42;14.88;;;4.03;;
49396;SDS011;35615;41.410;2.194;2022-08-06T03:57:18;10.25;;;3.85;;
49396;SDS011;35615;41.410;2.194;2022-08-06T03:59:57;6.32;;;3.92;;
49396;SDS011;35615;41.410;2.194;2022-08-06T04:02:39;8.80;;;4.32;;
49396;SDS011;35615;41.410;2.194;2022-08-06T04:05:21;9.27;;;3.67;;
49396;SDS011;35615;41.410;2.194;2022-08-06T04:07:54;7.53;;;4.28;;
49396;SDS011;35615;41.410;2.194;2022-08-06T04:10:30;11.18;;;3.53;;
49396;SDS011;35615;41.410;2.194;2022-08-06T04:13:02;7.80;;;3.55;;
49396;SDS011;35615;41.410;2.194;2022-08-06T04:15:52;8.27;;;4.50;;
49396;SDS011;35615;41.410;2.194;2022-08-06T04:18:26;8.57;;;3.90;;
49396;SDS011;35615;41.410;2.194;2022-08-06T04:20:59;6.38;;;3.80;;
49396;SDS011;35615;41.410;2.194;2022-08-06T04:23:52;10.00;;;3.50;;
49396;SDS011;35615;41.410;2.194;2022-08-06T04:26:21;6.03;;;3.72;;
49396;SDS011;35615;41.410;2.194;2022-08-06T04:28:55;9.02;;;3.60;;
49396;SDS011;35615;41.410;2.194;2022-08-06T04:31:25;6.50;;;3.83;;
49396;SDS011;35615;41.410;2.194;2022-08-06T04:34:15;8.60;;;4.10;;
49396;SDS011;35615;41.410;2.194;2022-08-06T04:36:54;10.38;;;4.10;;
49396;SDS011;35615;41.410;2.194;2022-08-06T04:39:24;9.35;;;3.78;;
49396;SDS011;35615;41.410;2.194;2022-08-06T04:42:13;10.95;;;4.15;;
49396;SDS011;35615;41.410;2.194;2022-08-06T04:44:41;7.68;;;3.55;;
49396;SDS011;35615;41.410;2.194;2022-08-06T04:47:11;10.77;;;3.63;;
49396;SDS011;35615;41.410;2.194;2022-08-06T04:49:45;5.35;;;3.63;;
49396;SDS011;35615;41.410;2.194;2022-08-06T04:52:28;8.43;;;3.83;;
49396;SDS011;35615;41.410;2.194;2022-08-06T04:55:17;7.78;;;3.80;;
49396;SDS011;35615;41.410;2.194;2022-08-06T04:57:59;6.22;;;3.65;;
49396;SDS011;35615;41.410;2.194;2022-08-06T05:00:40;7.13;;;3.70;;
49396;SDS011;35615;41.410;2.194;2022-08-06T05:03:29;12.40;;;3.83;;
49396;SDS011;35615;41.410;2.194;2022-08-06T05:09:15;5.30;;;3.40;;
49396;SDS011;35615;41.410;2.194;2022-08-06T05:17:32;6.88;;;3.30;;
49396;SDS011;35615;41.410;2.194;2022-08-06T05:20:08;7.30;;;3.60;;
49396;SDS011;35615;41.410;2.194;2022-08-06T05:23:29;5.35;;;3.20;;
49396;SDS011;35615;41.410;2.194;2022-08-06T05:25:57;4.95;;;3.83;;
49396;SDS011;35615;41.410;2.194;2022-08-06T05:28:25;6.80;;;3.50;;
49396;SDS011;35615;41.410;2.194;2022-08-06T05:30:53;13.07;;;3.85;;
49396;SDS011;35615;41.410;2.194;2022-08-06T05:33:24;4.25;;;3.47;;
49396;SDS011;35615;41.410;2.194;2022-08-06T05:35:55;10.63;;;5.20;;
49396;SDS011;35615;41.410;2.194;2022-08-06T05:38:31;10.00;;;3.65;;
49396;SDS011;35615;41.410;2.194;2022-08-06T05:41:02;7.47;;;3.78;;
49396;SDS011;35615;41.410;2.194;2022-08-06T05:43:38;13.00;;;3.83;;
49396;SDS011;35615;41.410;2.194;2022-08-06T05:46:26;4.63;;;3.47;;
49396;SDS011;35615;41.410;2.194;2022-08-06T05:55:01;10.10;;;3.80;;
49396;SDS011;35615;41.410;2.194;2022-08-06T05:57:59;6.97;;;3.58;;
49396;SDS011;35615;41.410;2.194;2022-08-06T06:00:31;12.88;;;3.65;;
49396;SDS011;35615;41.410;2.194;2022-08-06T06:03:12;6.00;;;3.80;;
49396;SDS011;35615;41.410;2.194;2022-08-06T06:05:54;6.85;;;3.13;;
49396;SDS011;35615;41.410;2.194;2022-08-06T06:08:43;10.07;;;3.55;;
49396;SDS011;35615;41.410;2.194;2022-08-06T06:11:25;9.63;;;3.75;;
49396;SDS011;35615;41.410;2.194;2022-08-06T06:17:04;6.78;;;3.92;;
49396;SDS011;35615;41.410;2.194;2022-08-06T06:25:21;19.20;;;4.28;;
49396;SDS011;35615;41.410;2.194;2022-08-06T06:30:56;9.48;;;3.90;;
49396;SDS011;35615;41.410;2.194;2022-08-06T06:36:29;11.38;;;3.95;;
49396;SDS011;35615;41.410;2.194;2022-08-06T06:39:08;8.10;;;3.55;;
49396;SDS011;35615;41.410;2.194;2022-08-06T06:41:53;7.82;;;3.75;;
49396;SDS011;35615;41.410;2.194;2022-08-06T06:44:44;9.85;;;3.72;;
49396;SDS011;35615;41.410;2.194;2022-08-06T06:50:21;8.57;;;3.83;;
49396;SDS011;35615;41.410;2.194;2022-08-06T06:52:52;6.13;;;3.65;;
49396;SDS011;35615;41.410;2.194;2022-08-06T06:58:42;8.15;;;4.25;;
49396;SDS011;35615;41.410;2.194;2022-08-06T07:01:17;4.63;;;3.05;;
49396;SDS011;35615;41.410;2.194;2022-08-06T07:03:54;5.55;;;4.07;;
49396;SDS011;35615;41.410;2.194;2022-08-06T07:06:23;6.75;;;4.20;;
49396;SDS011;35615;41.410;2.194;2022-08-06T07:09:09;10.68;;;4.00;;
49396;SDS011;35615;41.410;2.194;2022-08-06T07:12:02;10.20;;;4.50;;
49396;SDS011;35615;41.410;2.194;2022-08-06T07:14:45;12.63;;;4.50;;
49396;SDS011;35615;41.410;2.194;2022-08-06T07:17:27;10.52;;;4.25;;
49396;SDS011;35615;41.410;2.194;2022-08-06T07:20:16;12.30;;;4.43;;
49396;SDS011;35615;41.410;2.194;2022-08-06T07:22:54;6.90;;;4.00;;
49396;SDS011;35615;41.410;2.194;2022-08-06T07:25:45;11.25;;;4.25;;
49396;SDS011;35615;41.410;2.194;2022-08-06T07:28:21;8.60;;;4.20;;
49396;SDS011;35615;41.410;2.194;2022-08-06T07:30:55;14.35;;;5.07;;
49396;SDS011;35615;41.410;2.194;2022-08-06T07:33:36;9.73;;;5.20;;
49396;SDS011;35615;41.410;2.194;2022-08-06T07:36:27;13.35;;;4.65;;
49396;SDS011;35615;41.410;2.194;2022-08-06T07:39:05;14.60;;;4.40;;
49396;SDS011;35615;41.410;2.194;2022-08-06T07:41:41;10.65;;;4.15;;
49396;SDS011;35615;41.410;2.194;2022-08-06T07:44:30;9.50;;;4.55;;
49396;SDS011;35615;41.410;2.194;2022-08-06T07:47:33;9.45;;;4.57;;
49396;SDS011;35615;41.410;2.194;2022-08-06T07:50:22;6.47;;;4.60;;
49396;SDS011;35615;41.410;2.194;2022-08-06T07:52:55;8.60;;;4.28;;
49396;SDS011;35615;41.410;2.194;2022-08-06T07:55:24;10.38;;;3.95;;
49396;SDS011;35615;41.410;2.194;2022-08-06T07:58:06;9.32;;;4.88;;
49396;SDS011;35615;41.410;2.194;2022-08-06T08:00:38;12.82;;;4.20;;
49396;SDS011;35615;41.410;2.194;2022-08-06T08:03:15;8.32;;;3.80;;
49396;SDS011;35615;41.410;2.194;2022-08-06T08:06:23;7.40;;;3.95;;
49396;SDS011;35615;41.410;2.194;2022-08-06T08:08:56;9.20;;;3.92;;
49396;SDS011;35615;41.410;2.194;2022-08-06T08:11:30;11.60;;;4.53;;
49396;SDS011;35615;41.410;2.194;2022-08-06T08:14:20;9.50;;;4.25;;
49396;SDS011;35615;41.410;2.194;2022-08-06T08:16:51;9.95;;;4.80;;
49396;SDS011;35615;41.410;2.194;2022-08-06T08:19:23;10.50;;;4.43;;
49396;SDS011;35615;41.410;2.194;2022-08-06T08:24:42;8.23;;;4.22;;
49396;SDS011;35615;41.410;2.194;2022-08-06T08:27:19;10.80;;;4.43;;
49396;SDS011;35615;41.410;2.194;2022-08-06T08:30:03;9.32;;;3.70;;
49396;SDS011;35615;41.410;2.194;2022-08-06T08:32:30;10.75;;;4.28;;
49396;SDS011;35615;41.410;2.194;2022-08-06T08:34:59;6.13;;;3.88;;
49396;SDS011;35615;41.410;2.194;2022-08-06T08:37:29;8.57;;;4.10;;
49396;SDS011;35615;41.410;2.194;2022-08-06T08:39:58;13.52;;;4.38;;
49396;SDS011;35615;41.410;2.194;2022-08-06T08:42:28;15.23;;;4.88;;
49396;SDS011;35615;41.410;2.194;2022-08-06T08:45:04;8.13;;;4.90;;
49396;SDS011;35615;41.410;2.194;2022-08-06T08:47:39;12.63;;;5.40;;
49396;SDS011;35615;41.410;2.194;2022-08-06T08:50:25;11.52;;;4.47;;
49396;SDS011;35615;41.410;2.194;2022-08-06T08:52:57;15.65;;;5.82;;
49396;SDS011;35615;41.410;2.194;2022-08-06T08:55:30;12.63;;;4.63;;
49396;SDS011;35615;41.410;2.194;2022-08-06T08:58:18;12.43;;;4.45;;
49396;SDS011;35615;41.410;2.194;2022-08-06T09:01:07;7.32;;;3.60;;
49396;SDS011;35615;41.410;2.194;2022-08-06T09:03:56;15.13;;;3.53;;
49396;SDS011;35615;41.410;2.194;2022-08-06T09:06:23;9.57;;;3.60;;
49396;SDS011;35615;41.410;2.194;2022-08-06T09:08:56;8.57;;;3.60;;
49396;SDS011;35615;41.410;2.194;2022-08-06T09:11:33;10.18;;;2.90;;
49396;SDS011;35615;41.410;2.194;2022-08-06T09:14:21;6.30;;;3.58;;
49396;SDS011;35615;41.410;2.194;2022-08-06T09:17:02;3.67;;;3.13;;
49396;SDS011;35615;41.410;2.194;2022-08-06T09:19:38;7.53;;;3.05;;
49396;SDS011;35615;41.410;2.194;2022-08-06T09:22:07;9.23;;;5.40;;
49396;SDS011;35615;41.410;2.194;2022-08-06T09:24:38;9.07;;;3.47;;
49396;SDS011;35615;41.410;2.194;2022-08-06T09:27:07;9.00;;;3.00;;
49396;SDS011;35615;41.410;2.194;2022-08-06T09:30:04;8.27;;;2.92;;
49396;SDS011;35615;41.410;2.194;2022-08-06T09:32:52;8.25;;;3.58;;
49396;SDS011;35615;41.410;2.194;2022-08-06T09:35:24;5.45;;;2.67;;
49396;SDS011;35615;41.410;2.194;2022-08-06T09:38:11;5.20;;;2.13;;
49396;SDS011;35615;41.410;2.194;2022-08-06T09:41:02;12.27;;;4.20;;
49396;SDS011;35615;41.410;2.194;2022-08-06T09:43:41;7.10;;;3.75;;
49396;SDS011;35615;41.410;2.194;2022-08-06T09:46:35;7.30;;;2.80;;
49396;SDS011;35615;41.410;2.194;2022-08-06T09:49:07;10.18;;;3.40;;
49396;SDS011;35615;41.410;2.194;2022-08-06T09:52:17;6.43;;;2.80;;
49396;SDS011;35615;41.410;2.194;2022-08-06T09:54:47;9.18;;;3.10;;
49396;SDS011;35615;41.410;2.194;2022-08-06T09:57:19;4.10;;;2.20;;
49396;SDS011;35615;41.410;2.194;2022-08-06T10:00:02;5.78;;;2.38;;
49396;SDS011;35615;41.410;2.194;2022-08-06T10:02:41;11.55;;;3.25;;
49396;SDS011;35615;41.410;2.194;2022-08-06T10:05:16;4.25;;;2.45;;
49396;SDS011;35615;41.410;2.194;2022-08-06T10:07:46;4.10;;;2.67;;
49396;SDS011;35615;41.410;2.194;2022-08-06T10:10:37;3.33;;;2.60;;
49396;SDS011;35615;41.410;2.194;2022-08-06T10:13:21;5.38;;;2.33;;
49396;SDS011;35615;41.410;2.194;2022-08-06T10:15:52;11.07;;;3.97;;
49396;SDS011;35615;41.410;2.194;2022-08-06T10:21:25;6.35;;;2.90;;
49396;SDS011;35615;41.410;2.194;2022-08-06T10:24:10;6.57;;;2.97;;
49396;SDS011;35615;41.410;2.194;2022-08-06T10:27:06;6.05;;;3.05;;
49396;SDS011;35615;41.410;2.194;2022-08-06T10:32:29;5.88;;;2.72;;
49396;SDS011;35615;41.410;2.194;2022-08-06T10:35:10;8.52;;;3.08;;
49396;SDS011;35615;41.410;2.194;2022-08-06T10:37:45;7.75;;;3.10;;
49396;SDS011;35615;41.410;2.194;2022-08-06T10:40:20;6.03;;;4.15;;
49396;SDS011;35615;41.410;2.194;2022-08-06T10:43:00;6.88;;;3.78;;
49396;SDS011;35615;41.410;2.194;2022-08-06T10:45:40;12.75;;;3.50;;
49396;SDS011;35615;41.410;2.194;2022-08-06T10:48:16;13.02;;;3.42;;
49396;SDS011;35615;41.410;2.194;2022-08-06T10:51:08;8.07;;;4.18;;
49396;SDS011;35615;41.410;2.194;2022-08-06T10:53:39;5.57;;;2.70;;
49396;SDS011;35615;41.410;2.194;2022-08-06T10:56:28;6.38;;;2.60;;
49396;SDS011;35615;41.410;2.194;2022-08-06T10:59:06;6.18;;;2.28;;
49396;SDS011;35615;41.410;2.194;2022-08-06T11:07:37;12.10;;;2.17;;
49396;SDS011;35615;41.410;2.194;2022-08-06T11:10:47;3.25;;;2.25;;
49396;SDS011;35615;41.410;2.194;2022-08-06T11:14:10;3.60;;;2.63;;
49396;SDS011;35615;41.410;2.194;2022-08-06T11:16:57;9.63;;;2.90;;
49396;SDS011;35615;41.410;2.194;2022-08-06T11:19:38;4.97;;;3.03;;
49396;SDS011;35615;41.410;2.194;2022-08-06T11:22:32;5.22;;;3.30;;
49396;SDS011;35615;41.410;2.194;2022-08-06T11:25:05;2.85;;;2.13;;
49396;SDS011;35615;41.410;2.194;2022-08-06T11:30:35;5.40;;;2.25;;
49396;SDS011;35615;41.410;2.194;2022-08-06T11:34:00;4.38;;;2.47;;
49396;SDS011;35615;41.410;2.194;2022-08-06T11:36:02;12.80;;;2.58;;
49396;SDS011;35615;41.410;2.194;2022-08-06T11:41:27;4.82;;;2.47;;
49396;SDS011;35615;41.410;2.194;2022-08-06T11:44:24;6.50;;;2.30;;
49396;SDS011;35615;41.410;2.194;2022-08-06T11:47:10;7.40;;;2.22;;
49396;SDS011;35615;41.410;2.194;2022-08-06T11:49:56;7.03;;;2.90;;
49396;SDS011;35615;41.410;2.194;2022-08-06T11:55:07;6.88;;;2.40;;
49396;SDS011;35615;41.410;2.194;2022-08-06T11:57:47;4.15;;;2.50;;
49396;SDS011;35615;41.410;2.194;2022-08-06T12:00:20;3.15;;;2.60;;
49396;SDS011;35615;41.410;2.194;2022-08-06T12:11:24;5.25;;;2.72;;
49396;SDS011;35615;41.410;2.194;2022-08-06T12:14:02;6.00;;;2.50;;
49396;SDS011;35615;41.410;2.194;2022-08-06T12:16:51;6.40;;;2.58;;
49396;SDS011;35615;41.410;2.194;2022-08-06T12:19:25;7.28;;;2.40;;
49396;SDS011;35615;41.410;2.194;2022-08-06T12:21:52;5.40;;;2.70;;
49396;SDS011;35615;41.410;2.194;2022-08-06T12:24:26;6.03;;;2.72;;
49396;SDS011;35615;41.410;2.194;2022-08-06T12:27:15;6.70;;;2.63;;
49396;SDS011;35615;41.410;2.194;2022-08-06T12:29:56;12.73;;;3.05;;
49396;SDS011;35615;41.410;2.194;2022-08-06T12:32:32;7.38;;;2.85;;
49396;SDS011;35615;41.410;2.194;2022-08-06T12:35:19;5.15;;;2.92;;
49396;SDS011;35615;41.410;2.194;2022-08-06T12:37:47;3.53;;;2.58;;
49396;SDS011;35615;41.410;2.194;2022-08-06T12:40:17;6.45;;;3.13;;
49396;SDS011;35615;41.410;2.194;2022-08-06T12:45:40;6.15;;;3.08;;
49396;SDS011;35615;41.410;2.194;2022-08-06T12:48:32;11.70;;;2.95;;
49396;SDS011;35615;41.410;2.194;2022-08-06T12:51:08;4.57;;;3.00;;
49396;SDS011;35615;41.410;2.194;2022-08-06T12:53:56;7.10;;;3.17;;
49396;SDS011;35615;41.410;2.194;2022-08-06T12:56:35;6.88;;;3.20;;
49396;SDS011;35615;41.410;2.194;2022-08-06T12:59:07;9.02;;;3.00;;
49396;SDS011;35615;41.410;2.194;2022-08-06T13:01:49;6.00;;;3.22;;
49396;SDS011;35615;41.410;2.194;2022-08-06T13:04:36;10.30;;;3.13;;
49396;SDS011;35615;41.410;2.194;2022-08-06T13:07:07;10.23;;;2.75;;
49396;SDS011;35615;41.410;2.194;2022-08-06T13:09:41;4.97;;;2.20;;
49396;SDS011;35615;41.410;2.194;2022-08-06T13:12:31;7.95;;;2.80;;
49396;SDS011;35615;41.410;2.194;2022-08-06T13:15:18;4.20;;;2.70;;
49396;SDS011;35615;41.410;2.194;2022-08-06T13:18:06;6.00;;;2.50;;
49396;SDS011;35615;41.410;2.194;2022-08-06T13:20:56;4.93;;;2.53;;
49396;SDS011;35615;41.410;2.194;2022-08-06T13:26:20;10.40;;;3.45;;
49396;SDS011;35615;41.410;2.194;2022-08-06T13:32:09;5.38;;;2.88;;
49396;SDS011;35615;41.410;2.194;2022-08-06T13:34:58;8.05;;;3.47;;
49396;SDS011;35615;41.410;2.194;2022-08-06T13:40:35;7.15;;;4.00;;
49396;SDS011;35615;41.410;2.194;2022-08-06T13:43:11;8.98;;;3.65;;
49396;SDS011;35615;41.410;2.194;2022-08-06T13:46:09;6.47;;;3.30;;
49396;SDS011;35615;41.410;2.194;2022-08-06T13:48:49;8.68;;;3.60;;
49396;SDS011;35615;41.410;2.194;2022-08-06T13:51:19;4.50;;;3.50;;
49396;SDS011;35615;41.410;2.194;2022-08-06T13:53:53;7.88;;;3.47;;
49396;SDS011;35615;41.410;2.194;2022-08-06T13:56:25;5.50;;;3.25;;
49396;SDS011;35615;41.410;2.194;2022-08-06T13:58:58;5.22;;;3.22;;
49396;SDS011;35615;41.410;2.194;2022-08-06T14:01:27;6.97;;;3.15;;
49396;SDS011;35615;41.410;2.194;2022-08-06T14:04:11;6.72;;;3.78;;
49396;SDS011;35615;41.410;2.194;2022-08-06T14:06:40;7.93;;;3.55;;
49396;SDS011;35615;41.410;2.194;2022-08-06T14:09:12;7.63;;;3.37;;
49396;SDS011;35615;41.410;2.194;2022-08-06T14:11:46;8.93;;;3.75;;
49396;SDS011;35615;41.410;2.194;2022-08-06T14:14:20;7.93;;;3.30;;
49396;SDS011;35615;41.410;2.194;2022-08-06T14:16:51;13.02;;;3.50;;
49396;SDS011;35615;41.410;2.194;2022-08-06T14:19:19;5.18;;;3.38;;
49396;SDS011;35615;41.410;2.194;2022-08-06T14:22:07;8.15;;;3.47;;
49396;SDS011;35615;41.410;2.194;2022-08-06T14:24:35;10.57;;;3.75;;
49396;SDS011;35615;41.410;2.194;2022-08-06T14:27:06;8.15;;;3.35;;
49396;SDS011;35615;41.410;2.194;2022-08-06T14:29:51;7.63;;;3.80;;
49396;SDS011;35615;41.410;2.194;2022-08-06T14:32:42;7.03;;;3.47;;
49396;SDS011;35615;41.410;2.194;2022-08-06T14:35:13;8.48;;;3.80;;
49396;SDS011;35615;41.410;2.194;2022-08-06T14:37:42;10.90;;;4.20;;
49396;SDS011;35615;41.410;2.194;2022-08-06T14:40:21;3.83;;;3.40;;
49396;SDS011;35615;41.410;2.194;2022-08-06T14:43:28;10.52;;;4.25;;
49396;SDS011;35615;41.410;2.194;2022-08-06T14:46:25;10.65;;;3.70;;
49396;SDS011;35615;41.410;2.194;2022-08-06T14:48:59;4.35;;;2.65;;
49396;SDS011;35615;41.410;2.194;2022-08-06T14:51:38;4.95;;;2.50;;
49396;SDS011;35615;41.410;2.194;2022-08-06T14:54:26;7.50;;;2.63;;
49396;SDS011;35615;41.410;2.194;2022-08-06T14:57:02;3.03;;;2.45;;
49396;SDS011;35615;41.410;2.194;2022-08-06T14:59:42;9.60;;;2.75;;
49396;SDS011;35615;41.410;2.194;2022-08-06T15:02:21;8.30;;;2.70;;
49396;SDS011;35615;41.410;2.194;2022-08-06T15:04:52;3.38;;;2.75;;
49396;SDS011;35615;41.410;2.194;2022-08-06T15:07:22;5.38;;;2.78;;
49396;SDS011;35615;41.410;2.194;2022-08-06T15:09:52;3.47;;;2.40;;
49396;SDS011;35615;41.410;2.194;2022-08-06T15:12:41;12.15;;;2.50;;
49396;SDS011;35615;41.410;2.194;2022-08-06T15:15:25;8.38;;;2.97;;
49396;SDS011;35615;41.410;2.194;2022-08-06T15:18:15;5.75;;;2.65;;
49396;SDS011;35615;41.410;2.194;2022-08-06T15:21:03;9.45;;;2.90;;
49396;SDS011;35615;41.410;2.194;2022-08-06T15:23:39;4.47;;;2.70;;
49396;SDS011;35615;41.410;2.194;2022-08-06T15:26:20;8.68;;;2.85;;
49396;SDS011;35615;41.410;2.194;2022-08-06T15:29:12;6.70;;;2.90;;
49396;SDS011;35615;41.410;2.194;2022-08-06T15:31:41;3.50;;;2.75;;
49396;SDS011;35615;41.410;2.194;2022-08-06T15:34:13;3.53;;;2.30;;
49396;SDS011;35615;41.410;2.194;2022-08-06T15:36:52;10.25;;;2.40;;
49396;SDS011;35615;41.410;2.194;2022-08-06T15:39:29;5.10;;;2.25;;
49396;SDS011;35615;41.410;2.194;2022-08-06T15:42:19;10.25;;;2.70;;
49396;SDS011;35615;41.410;2.194;2022-08-06T15:44:49;4.88;;;2.60;;
49396;SDS011;35615;41.410;2.194;2022-08-06T15:47:20;2.53;;;1.98;;
49396;SDS011;35615;41.410;2.194;2022-08-06T15:50:06;6.65;;;2.63;;
49396;SDS011;35615;41.410;2.194;2022-08-06T15:52:50;7.00;;;2.72;;
49396;SDS011;35615;41.410;2.194;2022-08-06T15:55:18;4.60;;;2.70;;
49396;SDS011;35615;41.410;2.194;2022-08-06T15:57:47;6.90;;;3.05;;
49396;SDS011;35615;41.410;2.194;2022-08-06T16:00:33;3.65;;;2.30;;
49396;SDS011;35615;41.410;2.194;2022-08-06T16:03:06;5.38;;;2.65;;
49396;SDS011;35615;41.410;2.194;2022-08-06T16:05:37;3.05;;;2.08;;
49396;SDS011;35615;41.410;2.194;2022-08-06T16:08:25;6.13;;;2.80;;
49396;SDS011;35615;41.410;2.194;2022-08-06T16:11:01;4.90;;;2.45;;
49396;SDS011;35615;41.410;2.194;2022-08-06T16:13:35;6.53;;;2.10;;
49396;SDS011;35615;41.410;2.194;2022-08-06T16:16:04;10.25;;;2.45;;
49396;SDS011;35615;41.410;2.194;2022-08-06T16:18:33;10.60;;;2.60;;
49396;SDS011;35615;41.410;2.194;2022-08-06T16:21:18;12.32;;;2.80;;
49396;SDS011;35615;41.410;2.194;2022-08-06T16:23:49;6.93;;;2.80;;
49396;SDS011;35615;41.410;2.194;2022-08-06T16:26:29;9.48;;;3.00;;
49396;SDS011;35615;41.410;2.194;2022-08-06T16:29:11;7.20;;;2.75;;
49396;SDS011;35615;41.410;2.194;2022-08-06T16:31:39;6.55;;;2.72;;
49396;SDS011;35615;41.410;2.194;2022-08-06T16:34:16;7.50;;;2.85;;
49396;SDS011;35615;41.410;2.194;2022-08-06T16:36:57;6.05;;;2.47;;
49396;SDS011;35615;41.410;2.194;2022-08-06T16:39:26;4.85;;;2.72;;
49396;SDS011;35615;41.410;2.194;2022-08-06T16:42:06;4.97;;;2.30;;
49396;SDS011;35615;41.410;2.194;2022-08-06T16:44:36;5.05;;;2.45;;
49396;SDS011;35615;41.410;2.194;2022-08-06T16:47:24;4.35;;;2.28;;
49396;SDS011;35615;41.410;2.194;2022-08-06T16:50:12;8.57;;;2.63;;
49396;SDS011;35615;41.410;2.194;2022-08-06T16:52:51;4.10;;;2.25;;
49396;SDS011;35615;41.410;2.194;2022-08-06T16:55:42;4.25;;;2.20;;
49396;SDS011;35615;41.410;2.194;2022-08-06T16:58:11;4.57;;;2.67;;
49396;SDS011;35615;41.410;2.194;2022-08-06T17:00:59;2.40;;;2.20;;
49396;SDS011;35615;41.410;2.194;2022-08-06T17:03:47;4.32;;;2.33;;
49396;SDS011;35615;41.410;2.194;2022-08-06T17:06:14;3.58;;;2.35;;
49396;SDS011;35615;41.410;2.194;2022-08-06T17:08:44;5.43;;;2.47;;
49396;SDS011;35615;41.410;2.194;2022-08-06T17:11:19;7.97;;;2.50;;
49396;SDS011;35615;41.410;2.194;2022-08-06T17:14:08;6.75;;;2.50;;
49396;SDS011;35615;41.410;2.194;2022-08-06T17:16:42;5.28;;;2.35;;
49396;SDS011;35615;41.410;2.194;2022-08-06T17:19:13;4.90;;;2.88;;
49396;SDS011;35615;41.410;2.194;2022-08-06T17:21:43;6.47;;;2.63;;
49396;SDS011;35615;41.410;2.194;2022-08-06T17:24:26;9.45;;;2.63;;
49396;SDS011;35615;41.410;2.194;2022-08-06T17:27:04;5.75;;;2.72;;